createdAt,value
2023-04-19T00:00:45.190Z,18.90
2023-04-19T00:05:44.640Z,18.23
2023-04-19T00:10:43.523Z,18.73
2023-04-19T00:15:42.444Z,15.88
2023-04-19T00:20:41.354Z,16.50
2023-04-19T00:25:40.514Z,15.93
2023-04-19T00:30:39.300Z,15.07
2023-04-19T00:35:42.398Z,13.82
2023-04-19T00:40:41.238Z,13.50
2023-04-19T00:45:40.184Z,11.43
2023-04-19T00:50:39.390Z,10.73
2023-04-19T00:55:41.221Z,11.52
2023-04-19T01:00:40.273Z,9.80
2023-04-19T01:05:39.426Z,10.35
2023-04-19T01:10:38.197Z,11.63
2023-04-19T01:15:36.969Z,9.65
2023-04-19T01:20:36.060Z,9.25
2023-04-19T01:25:35.966Z,8.60
2023-04-19T01:30:36.444Z,8.13
2023-04-19T01:35:35.232Z,11.60
2023-04-19T01:40:34.157Z,8.48
2023-04-19T01:45:34.108Z,8.70
2023-04-19T01:50:33.052Z,9.38
2023-04-19T01:55:31.834Z,9.93
2023-04-19T02:00:30.650Z,11.55
2023-04-19T02:05:29.491Z,11.13
2023-04-19T02:10:29.505Z,11.80
2023-04-19T02:15:28.418Z,8.70
2023-04-19T02:20:27.226Z,9.90
2023-04-19T02:25:26.099Z,11.70
2023-04-19T02:30:24.941Z,10.52
2023-04-19T02:35:23.854Z,8.70
2023-04-19T02:40:23.899Z,7.72
2023-04-19T02:45:23.067Z,10.85
2023-04-19T02:50:21.876Z,10.02
2023-04-19T02:55:22.583Z,11.23
2023-04-19T03:00:32.022Z,10.63
2023-04-19T03:05:37.908Z,13.55
2023-04-19T03:10:36.749Z,12.73
2023-04-19T03:15:35.578Z,9.70
2023-04-19T03:20:34.961Z,11.27
2023-04-19T03:25:33.890Z,12.60
2023-04-19T03:30:46.193Z,11.95
2023-04-19T03:35:45.717Z,12.20
2023-04-19T03:40:44.790Z,13.40
2023-04-19T03:45:46.684Z,12.27
2023-04-19T03:50:46.008Z,14.07
2023-04-19T03:55:48.211Z,15.95
2023-04-19T04:00:47.006Z,15.95
2023-04-19T04:05:47.133Z,16.92
2023-04-19T04:10:45.939Z,15.40
2023-04-19T04:15:45.642Z,14.15
2023-04-19T04:20:45.888Z,13.85
2023-04-19T04:25:46.220Z,17.38
2023-04-19T04:30:47.188Z,14.00
2023-04-19T04:35:46.406Z,12.20
2023-04-19T04:40:55.404Z,7.55
2023-04-19T04:45:55.716Z,8.68
2023-04-19T04:50:55.508Z,10.05
2023-04-19T04:55:54.591Z,10.40
2023-04-19T05:00:53.788Z,9.38
2023-04-19T05:05:53.546Z,9.00
2023-04-19T05:10:52.882Z,7.35
2023-04-19T05:15:54.730Z,8.32
2023-04-19T05:20:53.876Z,7.00
2023-04-19T05:25:57.103Z,8.88
2023-04-19T05:30:59.139Z,9.55
2023-04-19T05:36:03.248Z,6.28
2023-04-19T05:41:03.533Z,5.25
2023-04-19T05:46:02.540Z,5.68
2023-04-19T05:51:01.733Z,7.93
2023-04-19T05:56:26.576Z,7.57
2023-04-19T06:01:25.756Z,4.22
2023-04-19T06:06:25.187Z,5.13
2023-04-19T06:11:31.486Z,5.13
2023-04-19T06:16:34.507Z,5.70
2023-04-19T06:21:34.012Z,4.03
2023-04-19T06:26:33.114Z,4.97
2023-04-19T06:31:33.565Z,4.35
2023-04-19T06:36:32.630Z,4.00
2023-04-19T06:41:31.503Z,4.60
2023-04-19T06:46:30.773Z,3.35
2023-04-19T06:51:29.598Z,4.72
2023-04-19T06:56:42.312Z,5.47
2023-04-19T07:01:41.439Z,4.43
2023-04-19T07:06:40.679Z,2.88
2023-04-19T07:11:39.618Z,3.72
2023-04-19T07:16:38.389Z,4.05
2023-04-19T07:21:38.838Z,4.07
2023-04-19T07:26:37.659Z,2.20
2023-04-19T07:31:36.976Z,4.68
2023-04-19T07:36:37.123Z,2.78
2023-04-19T07:41:36.372Z,3.88
2023-04-19T07:46:35.767Z,4.18
2023-04-19T07:51:34.698Z,5.82
2023-04-19T07:56:36.207Z,3.13
2023-04-19T08:01:35.780Z,4.28
2023-04-19T08:06:34.896Z,5.72
2023-04-19T08:11:33.818Z,3.92
2023-04-19T08:17:14.547Z,6.22
2023-04-19T08:21:51.486Z,3.08
2023-04-19T08:26:54.051Z,4.05
2023-04-19T08:31:53.160Z,3.50
2023-04-19T08:37:03.349Z,5.25
2023-04-19T08:42:13.454Z,3.90
2023-04-19T08:47:31.167Z,4.53
2023-04-19T08:52:39.314Z,5.25
2023-04-19T08:57:43.967Z,4.07
2023-04-19T09:02:48.284Z,3.75
2023-04-19T09:07:48.289Z,4.30
2023-04-19T09:13:04.809Z,4.72
2023-04-19T09:18:06.955Z,7.25
2023-04-19T09:23:07.778Z,4.28
2023-04-19T09:28:14.700Z,5.10
2023-04-19T09:33:13.692Z,3.58
2023-04-19T09:38:12.999Z,5.63
2023-04-19T09:43:40.421Z,4.68
2023-04-19T09:48:33.955Z,4.50
2023-04-19T09:53:36.785Z,4.07
2023-04-19T09:58:46.856Z,6.63
2023-04-19T10:03:50.409Z,4.50
2023-04-19T10:08:51.186Z,4.38
2023-04-19T10:13:58.917Z,5.47
2023-04-19T10:18:58.676Z,4.78
2023-04-19T10:23:58.655Z,6.10
2023-04-19T10:28:57.529Z,8.30
2023-04-19T10:33:57.827Z,3.97
2023-04-19T10:38:57.073Z,5.72
2023-04-19T10:43:56.176Z,5.18
2023-04-19T10:48:58.853Z,5.10
2023-04-19T10:53:57.705Z,4.85
2023-04-19T10:59:02.909Z,6.57
2023-04-19T11:04:02.009Z,4.63
2023-04-19T11:09:03.237Z,5.47
2023-04-19T11:14:03.483Z,5.93
2023-04-19T11:19:02.213Z,4.18
2023-04-19T11:24:11.161Z,4.80
2023-04-19T11:29:10.276Z,5.00
2023-04-19T11:34:09.183Z,3.90
2023-04-19T11:39:08.227Z,4.07
2023-04-19T11:44:20.302Z,4.78
2023-04-19T11:49:33.363Z,5.43
2023-04-19T11:54:33.908Z,3.33
2023-04-19T11:59:35.437Z,8.48
2023-04-19T12:04:35.255Z,3.80
2023-04-19T12:09:36.492Z,4.70
2023-04-19T12:14:35.534Z,6.85
2023-04-19T12:19:52.465Z,4.90
2023-04-19T12:24:53.313Z,5.68
2023-04-19T12:29:52.223Z,2.85
2023-04-19T12:34:51.350Z,3.55
2023-04-19T12:39:50.072Z,4.45
2023-04-19T12:44:48.974Z,6.88
2023-04-19T12:49:47.894Z,3.83
2023-04-19T12:54:47.002Z,4.55
2023-04-19T12:59:45.875Z,5.60
2023-04-19T13:04:44.987Z,4.50
2023-04-19T13:09:43.844Z,6.53
2023-04-19T13:14:42.563Z,5.15
2023-04-19T13:19:41.546Z,4.50
2023-04-19T13:24:40.466Z,5.78
2023-04-19T13:29:39.501Z,5.40
2023-04-19T13:34:40.315Z,4.22
2023-04-19T13:39:39.366Z,4.78
2023-04-19T13:44:38.368Z,5.75
2023-04-19T13:49:37.193Z,5.45
2023-04-19T13:54:36.263Z,4.82
2023-04-19T13:59:35.023Z,5.80
2023-04-19T14:04:33.916Z,4.75
2023-04-19T14:09:32.755Z,8.40
2023-04-19T14:14:32.483Z,3.92
2023-04-19T14:19:31.737Z,5.70
2023-04-19T14:24:30.837Z,4.75
2023-04-19T14:29:29.744Z,5.63
2023-04-19T14:34:28.800Z,6.43
2023-04-19T14:39:27.562Z,6.10
2023-04-19T14:44:26.488Z,5.32
2023-04-19T14:49:25.343Z,4.32
2023-04-19T14:54:24.216Z,4.72
2023-04-19T14:59:23.033Z,4.82
2023-04-19T15:04:21.930Z,5.75
2023-04-19T15:09:20.853Z,4.50
2023-04-19T15:14:19.970Z,6.50
2023-04-19T15:19:19.052Z,5.70
2023-04-19T15:24:18.385Z,8.75
2023-04-19T15:29:17.366Z,6.00
2023-04-19T15:34:16.320Z,5.20
2023-04-19T15:39:15.553Z,4.38
2023-04-19T15:44:14.443Z,5.70
2023-04-19T15:49:13.565Z,5.63
2023-04-19T15:54:14.592Z,5.72
2023-04-19T15:59:13.398Z,8.02
2023-04-19T16:04:12.454Z,6.32
2023-04-19T16:09:11.518Z,7.10
2023-04-19T16:14:10.329Z,7.43
2023-04-19T16:19:09.035Z,7.65
2023-04-19T16:24:08.060Z,5.40
2023-04-19T16:29:07.204Z,6.25
2023-04-19T16:34:06.172Z,7.03
2023-04-19T16:39:05.098Z,5.70
2023-04-19T16:44:04.356Z,4.85
2023-04-19T16:49:03.413Z,6.32
2023-04-19T16:54:02.122Z,6.35
2023-04-19T16:59:01.466Z,5.97
2023-04-19T17:04:00.633Z,5.88
2023-04-19T17:09:05.186Z,5.10
2023-04-19T17:14:04.696Z,4.50
2023-04-19T17:19:03.453Z,5.05
2023-04-19T17:24:02.215Z,7.05
2023-04-19T17:29:02.112Z,6.70
2023-04-19T17:34:01.258Z,5.38
2023-04-19T17:39:00.152Z,7.07
2023-04-19T17:43:58.959Z,6.63
2023-04-19T17:48:57.890Z,6.85
2023-04-19T17:53:56.700Z,6.75
2023-04-19T17:58:55.909Z,6.50
2023-04-19T18:03:54.811Z,5.07
2023-04-19T18:08:53.750Z,6.90
2023-04-19T18:13:52.762Z,9.32
2023-04-19T18:18:51.719Z,5.18
2023-04-19T18:23:52.436Z,5.35
2023-04-19T18:28:51.206Z,6.80
2023-04-19T18:33:49.988Z,8.35
2023-04-19T18:38:48.734Z,5.90
2023-04-19T18:44:00.727Z,6.43
2023-04-19T18:49:06.843Z,5.90
2023-04-19T18:54:05.718Z,6.53
2023-04-19T18:59:04.740Z,6.55
2023-04-19T19:09:06.550Z,4.65
2023-04-19T19:14:05.635Z,7.18
2023-04-19T19:19:07.729Z,5.85
2023-04-19T19:24:06.846Z,6.70
2023-04-19T19:29:06.810Z,5.53
2023-04-19T19:34:22.724Z,5.45
2023-04-19T19:39:24.732Z,11.85
2023-04-19T19:45:13.906Z,7.32
2023-04-19T19:51:00.146Z,5.10
2023-04-19T19:55:33.224Z,6.30
2023-04-19T20:00:45.138Z,10.95
2023-04-19T20:05:46.987Z,7.25
2023-04-19T20:10:45.955Z,6.55
2023-04-19T20:15:47.275Z,7.60
2023-04-19T20:20:46.475Z,7.75
2023-04-19T20:25:45.312Z,5.63
2023-04-19T20:30:44.125Z,6.43
2023-04-19T20:35:44.066Z,7.53
2023-04-19T20:40:44.123Z,6.80
2023-04-19T20:45:42.935Z,5.15
2023-04-19T20:50:42.429Z,5.00
2023-04-19T20:55:42.210Z,5.22
2023-04-19T21:00:41.086Z,5.18
2023-04-19T21:05:40.751Z,3.95
2023-04-19T21:10:39.510Z,5.10
2023-04-19T21:15:38.316Z,6.50
2023-04-19T21:20:37.859Z,5.72
2023-04-19T21:25:37.160Z,5.38
2023-04-19T21:30:40.731Z,5.70
2023-04-19T21:35:39.490Z,5.97
2023-04-19T21:40:38.224Z,5.40
2023-04-19T21:45:36.928Z,6.68
2023-04-19T21:50:35.757Z,5.47
2023-04-19T21:55:34.629Z,5.88
2023-04-19T22:00:33.357Z,5.97
2023-04-19T22:05:32.229Z,6.72
2023-04-19T22:10:33.756Z,5.07
2023-04-19T22:15:32.776Z,5.57
2023-04-19T22:20:32.199Z,4.68
2023-04-19T22:25:30.968Z,5.13
2023-04-19T22:30:29.926Z,5.10
2023-04-19T22:35:28.681Z,5.28
2023-04-19T22:40:27.635Z,5.75
2023-04-19T22:45:26.509Z,5.60
2023-04-19T22:50:25.277Z,5.72
2023-04-19T22:55:24.185Z,6.55
2023-04-19T23:00:22.975Z,5.47
2023-04-19T23:05:21.913Z,4.80
2023-04-19T23:10:21.681Z,7.80
2023-04-19T23:15:21.259Z,6.90
2023-04-19T23:20:20.110Z,6.00
2023-04-19T23:25:18.859Z,5.40
2023-04-19T23:30:17.995Z,4.35
2023-04-19T23:35:16.763Z,4.50
2023-04-19T23:40:15.701Z,4.47
2023-04-19T23:45:14.535Z,5.28
2023-04-19T23:50:13.289Z,4.57
2023-04-19T23:55:12.702Z,5.30
